Latest Weather Observations for South Channel Island

IDV60901

Issued at 6:41 pm EDT Thursday 2 April 2015 (issued every 10 minutes, with the page automatically refreshed every 10 minutes)

About weather observations | Map of Melbourne area stations | Latest observations for Melbourne area | Other Formats
Station Details ID: 086344 Name: SOUTH CHANNEL ISLAND Lat: -38.31 Lon: 144.80 Height: 9.0 m
Data from the previous 72 hours. | See also: Recent months for locations in Victoria
Date/Time
EDT
Tmp

°C
App
Tmp
°C
Dew
Point
°C
Rel
Hum
%
Delta-T

°C
Wind Press
QNH
hPa
Press
MSL
hPa
Rain
since
9 am
mm
Dir
 
Spd
km/h
Gust
km/h
Spd
kts
Gust
kts
02/06:30pm - - - - - S 48 56 26 30 - - -
02/06:00pm - - - - - S 46 54 25 29 - - -
02/05:30pm - - - - - S 44 52 24 28 - - -
02/05:00pm - - - - - S 43 54 23 29 - - -
02/04:30pm - - - - - S 41 50 22 27 - - -
02/04:00pm - - - - - S 39 52 21 28 - - -
02/03:30pm - - - - - SSW 43 52 23 28 - - -
02/03:00pm - - - - - SSW 43 48 23 26 - - -
02/02:30pm - - - - - SSW 37 48 20 26 - - -
02/02:00pm - - - - - SSW 39 52 21 28 - - -
02/01:30pm - - - - - SSW 37 44 20 24 - - -
02/01:00pm - - - - - SSW 41 52 22 28 - - -
02/12:30pm - - - - - SSW 43 52 23 28 - - -
02/12:00pm - - - - - SSW 43 50 23 27 - - -
02/11:30am - - - - - SSW 44 54 24 29 - - -
02/11:00am - - - - - SSW 43 54 23 29 - - -
02/10:30am - - - - - SSW 50 57 27 31 - - -
02/10:00am - - - - - SW 50 59 27 32 - - -
02/09:30am - - - - - SW 50 57 27 31 - - -
02/09:00am - - - - - SW 52 61 28 33 - - -
02/08:30am - - - - - SSW 50 59 27 32 - - -
02/08:00am - - - - - SW 50 59 27 32 - - -
02/07:30am - - - - - SW 50 59 27 32 - - -
02/07:00am - - - - - SW 54 63 29 34 - - -
02/06:30am - - - - - WSW 46 63 25 34 - - -
02/06:00am - - - - - W 46 54 25 29 - - -
02/05:30am - - - - - WSW 57 65 31 35 - - -
02/05:00am - - - - - WSW 50 59 27 32 - - -
02/04:30am - - - - - WSW 52 67 28 36 - - -
02/04:00am - - - - - SW 57 70 31 38 - - -
02/03:30am - - - - - SW 52 63 28 34 - - -
02/03:17am - - - - - WSW 48 61 26 33 - - -
02/03:00am - - - - - WSW 61 76 33 41 - - -
02/02:52am - - - - - WSW 56 74 30 40 - - -
02/02:30am - - - - - SW 61 72 33 39 - - -
02/02:00am - - - - - SW 59 72 32 39 - - -
02/01:30am - - - - - SW 59 70 32 38 - - -
02/01:16am - - - - - SW 52 63 28 34 - - -
02/01:00am - - - - - W 37 54 20 29 - - -
02/12:59am - - - - - W 35 54 19 29 - - -
02/12:30am - - - - - W 39 44 21 24 - - -
02/12:00am - - - - - W 44 52 24 28 - - -
 
Date/Time
EDT
Tmp

°C
App
Tmp
°C
Dew
Point
°C
Rel
Hum
%
Delta-T

°C
Wind Press
QNH
hPa
Press
MSL
hPa
Rain
since
9 am
mm
Dir
 
Spd
km/h
Gust
km/h
Spd
kts
Gust
kts
01/11:30pm - - - - - W 46 56 25 30 - - -
01/11:18pm - - - - - W 41 56 22 30 - - -
01/11:00pm - - - - - W 32 35 17 19 - - -
01/10:30pm - - - - - SW 30 33 16 18 - - -
01/10:00pm - - - - - SW 37 59 20 32 - - -
01/09:56pm - - - - - W 33 59 18 32 - - -
01/09:55pm - - - - - WNW 30 56 16 30 - - -
01/09:53pm - - - - - NW 28 56 15 30 - - -
01/09:52pm - - - - - NNW 28 56 15 30 - - -
01/09:51pm - - - - - NNW 26 52 14 28 - - -
01/09:30pm - - - - - N 28 30 15 16 - - -
01/09:00pm - - - - - N 28 32 15 17 - - -
01/08:30pm - - - - - N 26 28 14 15 - - -
01/08:00pm - - - - - N 30 32 16 17 - - -
01/07:30pm - - - - - N 28 30 15 16 - - -
01/07:00pm - - - - - N 22 26 12 14 - - -
01/06:30pm - - - - - N 24 26 13 14 - - -
01/06:00pm - - - - - N 24 28 13 15 - - -
01/05:30pm - - - - - NNW 28 28 15 15 - - -
01/05:00pm - - - - - NNW 32 33 17 18 - - -
01/04:30pm - - - - - N 28 30 15 16 - - -
01/04:00pm - - - - - NNW 30 35 16 19 - - -
01/03:30pm - - - - - NNW 32 33 17 18 - - -
01/03:00pm - - - - - NNW 35 39 19 21 - - -
01/02:30pm - - - - - N 32 39 17 21 - - -
01/02:00pm - - - - - NNE 33 39 18 21 - - -
01/01:30pm - - - - - NNE 24 28 13 15 - - -
01/01:00pm - - - - - NNE 28 30 15 16 - - -
01/12:30pm - - - - - N 35 41 19 22 - - -
01/12:00pm - - - - - N 39 43 21 23 - - -
01/11:30am - - - - - N 39 43 21 23 - - -
01/11:00am - - - - - N 44 52 24 28 - - -
01/10:30am - - - - - N 44 54 24 29 - - -
01/10:00am - - - - - N 43 52 23 28 - - -
01/09:30am - - - - - N 41 52 22 28 - - -
01/09:00am - - - - - N 33 39 18 21 - - -
01/08:30am - - - - - N 32 35 17 19 - - -
01/08:00am - - - - - N 30 35 16 19 - - -
01/07:30am - - - - - NNE 28 33 15 18 - - -
01/07:00am - - - - - NNE 28 32 15 17 - - -
01/06:30am - - - - - NNE 24 28 13 15 - - -
01/06:00am - - - - - NNE 22 26 12 14 - - -
01/05:30am - - - - - NNE 20 24 11 13 - - -
01/05:00am - - - - - NNE 19 20 10 11 - - -
01/04:30am - - - - - NNE 17 19 9 10 - - -
01/04:00am - - - - - NE 17 17 9 9 - - -
01/03:30am - - - - - NE 17 19 9 10 - - -
01/03:00am - - - - - NE 17 19 9 10 - - -
01/02:30am - - - - - NE 17 19 9 10 - - -
01/02:00am - - - - - NE 17 19 9 10 - - -
01/01:30am - - - - - NE 11 13 6 7 - - -
01/01:00am - - - - - NE 17 19 9 10 - - -
01/12:30am - - - - - NE 9 13 5 7 - - -
01/12:00am - - - - - WNW 9 11 5 6 - - -
 
Date/Time
EDT
Tmp

°C
App
Tmp
°C
Dew
Point
°C
Rel
Hum
%
Delta-T

°C
Wind Press
QNH
hPa
Press
MSL
hPa
Rain
since
9 am
mm
Dir
 
Spd
km/h
Gust
km/h
Spd
kts
Gust
kts
31/11:30pm - - - - - WNW 9 11 5 6 - - -
31/11:00pm - - - - - CALM 0 0 0 0 - - -
31/10:30pm - - - - - CALM 0 0 0 0 - - -
31/10:00pm - - - - - S 7 7 4 4 - - -
31/09:30pm - - - - - E 9 11 5 6 - - -
31/09:00pm - - - - - E 9 11 5 6 - - -
31/08:30pm - - - - - ESE 17 20 9 11 - - -
31/08:00pm - - - - - SE 26 30 14 16 - - -
31/07:30pm - - - - - SE 28 32 15 17 - - -
31/07:00pm - - - - - SE 28 32 15 17 - - -
31/06:30pm - - - - - SE 26 30 14 16 - - -
31/06:00pm - - - - - SE 28 30 15 16 - - -
31/05:30pm - - - - - S 26 28 14 15 - - -
31/05:00pm - - - - - SSW 24 28 13 15 - - -
31/04:30pm - - - - - SSW 17 19 9 10 - - -
31/04:00pm - - - - - S 20 24 11 13 - - -
31/03:30pm - - - - - SSW 20 26 11 14 - - -
31/03:00pm - - - - - SSW 9 11 5 6 - - -
31/02:30pm - - - - - WSW 9 11 5 6 - - -
31/02:00pm - - - - - W 6 7 3 4 - - -
31/01:30pm - - - - - NW 7 7 4 4 - - -
31/01:00pm - - - - - N 7 9 4 5 - - -
31/12:30pm - - - - - N 9 11 5 6 - - -
31/12:00pm - - - - - NNE 13 13 7 7 - - -
31/11:30am - - - - - NNE 15 17 8 9 - - -
31/11:00am - - - - - NE 15 17 8 9 - - -
31/10:30am - - - - - NE 7 9 4 5 - - -
31/10:00am - - - - - ENE 7 9 4 5 - - -
31/09:30am - - - - - ENE 9 11 5 6 - - -
31/09:00am - - - - - ESE 9 11 5 6 - - -
31/08:30am - - - - - SE 11 13 6 7 - - -
31/08:00am - - - - - SE 11 13 6 7 - - -
31/07:30am - - - - - SSE 11 13 6 7 - - -
31/07:00am - - - - - S 11 11 6 6 - - -
31/06:30am - - - - - SSE 9 9 5 5 - - -
31/06:00am - - - - - S 9 9 5 5 - - -
31/05:30am - - - - - S 7 9 4 5 - - -
31/05:00am - - - - - SE 6 7 3 4 - - -
31/04:30am - - - - - E 7 9 4 5 - - -
31/04:00am - - - - - ENE 11 13 6 7 - - -
31/03:30am - - - - - ENE 11 13 6 7 - - -
31/03:00am - - - - - E 13 13 7 7 - - -
31/02:30am - - - - - E 9 11 5 6 - - -
31/02:00am - - - - - ENE 7 9 4 5 - - -
31/01:30am - - - - - E 7 7 4 4 - - -
31/01:00am - - - - - E 9 11 5 6 - - -
31/12:30am - - - - - SSE 7 7 4 4 - - -
31/12:00am - - - - - ESE 7 9 4 5 - - -
 
Date/Time
EDT
Tmp

°C
App
Tmp
°C
Dew
Point
°C
Rel
Hum
%
Delta-T

°C
Wind Press
QNH
hPa
Press
MSL
hPa
Rain
since
9 am
mm
Dir
 
Spd
km/h
Gust
km/h
Spd
kts
Gust
kts
30/11:30pm - - - - - ESE 9 11 5 6 - - -
30/11:00pm - - - - - SE 13 15 7 8 - - -
30/10:30pm - - - - - SE 13 15 7 8 - - -
30/10:00pm - - - - - ESE 11 13 6 7 - - -
30/09:30pm - - - - - SSE 13 17 7 9 - - -
30/09:00pm - - - - - S 15 19 8 10 - - -
30/08:30pm - - - - - S 19 20 10 11 - - -
30/08:00pm - - - - - S 17 20 9 11 - - -
30/07:30pm - - - - - S 20 24 11 13 - - -
30/07:00pm - - - - - S 24 28 13 15 - - -

Latest Capital City Observations: Canberra | Sydney | Melbourne | Brisbane | Adelaide | Perth | Hobart | Darwin

Other Formats:

Comma delimited format used in spreadsheet applications
http://www.bom.gov.au/fwo/IDV60901/IDV60901.94853.axf

JavaScript Object Notation format (JSON) in row-major order
http://www.bom.gov.au/fwo/IDV60901/IDV60901.94853.json